createdAt,value
2022-10-18T00:02:05.832Z,97262.69
2022-10-18T00:04:32.694Z,97258.81
2022-10-18T00:06:59.193Z,97250.63
2022-10-18T00:09:27.463Z,97264.41
2022-10-18T00:11:55.082Z,97257.78
2022-10-18T00:14:22.045Z,97262.88
2022-10-18T00:16:48.613Z,97268.78
2022-10-18T00:19:15.105Z,97257.78
2022-10-18T00:21:41.588Z,97259.00
2022-10-18T00:24:08.266Z,97245.19
2022-10-18T00:26:34.759Z,97247.22
2022-10-18T00:29:05.371Z,97249.72
2022-10-18T00:31:37.038Z,97246.97
2022-10-18T00:34:06.076Z,97260.16
2022-10-18T00:36:34.469Z,97247.44
2022-10-18T00:39:02.341Z,97249.28
2022-10-18T00:41:31.237Z,97233.19
2022-10-18T00:44:00.490Z,97252.31
2022-10-18T00:46:32.126Z,97246.91
2022-10-18T00:49:01.267Z,97233.59
2022-10-18T00:51:44.976Z,97242.56
2022-10-18T00:54:13.306Z,97247.75
2022-10-18T00:56:39.968Z,97248.19
2022-10-18T00:59:07.827Z,97241.03
2022-10-18T01:01:34.403Z,97243.09
2022-10-18T01:04:01.122Z,97228.88
2022-10-18T01:06:28.780Z,97231.78
2022-10-18T01:09:18.914Z,97238.00
2022-10-18T01:12:13.289Z,97237.84
2022-10-18T01:15:04.655Z,97244.53
2022-10-18T01:17:34.274Z,97235.53
2022-10-18T01:20:41.884Z,97242.16
2022-10-18T01:23:19.191Z,97238.75
2022-10-18T01:25:51.593Z,97237.53
2022-10-18T01:28:53.214Z,97241.13
2022-10-18T01:31:23.732Z,97243.63
2022-10-18T01:36:40.486Z,97236.38
2022-10-18T01:39:12.534Z,97235.44
2022-10-18T01:41:41.778Z,97243.34
2022-10-18T01:44:11.375Z,97240.38
2022-10-18T01:46:40.409Z,97240.25
2022-10-18T01:49:07.303Z,97236.72
2022-10-18T01:51:34.195Z,97229.09
2022-10-18T01:54:00.943Z,97232.34
2022-10-18T01:56:42.747Z,97235.28
2022-10-18T01:59:30.526Z,97233.44
2022-10-18T02:02:18.532Z,97231.47
2022-10-18T02:04:51.010Z,97236.13
2022-10-18T02:07:28.767Z,97228.69
2022-10-18T02:10:08.963Z,97224.94
2022-10-18T02:12:40.291Z,97232.84
2022-10-18T02:15:08.022Z,97220.94
2022-10-18T02:17:34.814Z,97218.63
2022-10-18T02:20:06.428Z,97229.94
2022-10-18T02:22:33.874Z,97230.56
2022-10-18T02:25:04.789Z,97224.19
2022-10-18T02:27:31.340Z,97217.56
2022-10-18T02:29:58.711Z,97224.53
2022-10-18T02:32:34.849Z,97215.25
2022-10-18T02:35:13.899Z,97220.38
2022-10-18T02:37:42.623Z,97225.00
2022-10-18T02:40:11.248Z,97224.09
2022-10-18T02:42:46.783Z,97226.28
2022-10-18T02:45:13.955Z,97220.38
2022-10-18T02:47:40.456Z,97226.41
2022-10-18T02:50:07.185Z,97214.34
2022-10-18T02:52:33.654Z,97217.91
2022-10-18T02:55:01.220Z,97205.97
2022-10-18T02:57:27.870Z,97210.94
2022-10-18T02:59:54.307Z,97218.38
2022-10-18T03:02:20.762Z,97223.16
2022-10-18T03:04:47.194Z,97224.09
2022-10-18T03:07:13.651Z,97228.44
2022-10-18T03:09:40.095Z,97234.03
2022-10-18T03:12:06.803Z,97233.88
2022-10-18T03:14:33.313Z,97220.88
2022-10-18T03:16:59.738Z,97227.66
2022-10-18T03:19:26.164Z,97235.91
2022-10-18T03:21:52.837Z,97233.59
2022-10-18T03:24:19.333Z,97232.66
2022-10-18T03:26:45.779Z,97228.78
2022-10-18T03:29:12.701Z,97226.91
2022-10-18T03:31:39.209Z,97233.13
2022-10-18T03:34:05.929Z,97224.94
2022-10-18T03:36:33.910Z,97228.34
2022-10-18T03:39:01.160Z,97236.22
2022-10-18T03:41:28.175Z,97238.25
2022-10-18T03:43:54.602Z,97235.19
2022-10-18T03:46:21.042Z,97242.44
2022-10-18T03:48:47.600Z,97241.66
2022-10-18T03:51:13.996Z,97249.56
2022-10-18T03:53:40.565Z,97253.13
2022-10-18T03:56:07.058Z,97257.78
2022-10-18T04:01:04.901Z,97248.63
2022-10-18T04:03:31.374Z,97251.72
2022-10-18T04:06:00.478Z,97243.38
2022-10-18T04:08:27.309Z,97238.09
2022-10-18T04:10:53.797Z,97238.72
2022-10-18T04:13:20.238Z,97242.16
2022-10-18T04:15:46.677Z,97234.84
2022-10-18T04:18:13.102Z,97244.47
2022-10-18T04:20:39.526Z,97232.53
2022-10-18T04:23:05.963Z,97241.53
2022-10-18T04:25:32.406Z,97244.16
2022-10-18T04:27:58.881Z,97237.19
2022-10-18T04:30:25.320Z,97226.22
2022-10-18T04:32:51.774Z,97243.72
2022-10-18T04:35:19.704Z,97238.13
2022-10-18T04:37:46.129Z,97232.09
2022-10-18T04:40:12.769Z,97235.94
2022-10-18T04:42:39.205Z,97234.72
2022-10-18T04:45:06.192Z,97229.94
2022-10-18T04:47:32.837Z,97225.13
2022-10-18T04:49:59.526Z,97227.44
2022-10-18T04:52:25.978Z,97233.63
2022-10-18T04:54:52.392Z,97221.72
2022-10-18T04:57:18.891Z,97220.50
2022-10-18T04:59:45.370Z,97219.41
2022-10-18T05:02:11.828Z,97229.94
2022-10-18T05:04:38.303Z,97226.81
2022-10-18T05:07:06.586Z,97232.72
2022-10-18T05:09:33.607Z,97239.97
2022-10-18T05:12:00.037Z,97231.31
2022-10-18T05:14:26.478Z,97239.84
2022-10-18T05:16:52.903Z,97235.97
2022-10-18T05:19:19.406Z,97229.00
2022-10-18T05:21:45.876Z,97221.41
2022-10-18T05:24:12.954Z,97211.66
2022-10-18T05:26:39.361Z,97221.09
2022-10-18T05:29:05.906Z,97222.50
2022-10-18T05:31:32.352Z,97223.59
2022-10-18T05:33:58.829Z,97232.22
2022-10-18T05:36:26.155Z,97230.22
2022-10-18T05:38:53.598Z,97226.22
2022-10-18T05:41:20.076Z,97215.81
2022-10-18T05:43:46.541Z,97228.81
2022-10-18T05:46:15.431Z,97233.31
2022-10-18T05:48:43.986Z,97232.09
2022-10-18T05:51:10.501Z,97231.13
2022-10-18T05:53:38.079Z,97231.78
2022-10-18T05:56:05.975Z,97231.13
2022-10-18T05:58:32.619Z,97228.66
2022-10-18T06:01:00.884Z,97238.38
2022-10-18T06:03:31.043Z,97247.97
2022-10-18T06:06:02.146Z,97238.97
2022-10-18T06:08:29.133Z,97245.63
2022-10-18T06:10:55.861Z,97251.53
2022-10-18T06:13:22.348Z,97252.56
2022-10-18T06:15:48.917Z,97255.41
2022-10-18T06:18:15.969Z,97249.72
2022-10-18T06:20:42.432Z,97248.72
2022-10-18T06:23:08.889Z,97250.81
2022-10-18T06:25:35.329Z,97250.22
2022-10-18T06:28:06.007Z,97245.13
2022-10-18T06:30:34.902Z,97240.88
2022-10-18T06:33:01.481Z,97249.06
2022-10-18T06:35:27.997Z,97245.13
2022-10-18T06:37:54.436Z,97236.78
2022-10-18T06:40:20.900Z,97243.78
2022-10-18T06:42:59.908Z,97247.47
2022-10-18T06:45:27.145Z,97251.81
2022-10-18T06:47:53.648Z,97262.06
2022-10-18T06:50:20.073Z,97271.34
2022-10-18T06:52:48.826Z,97263.56
2022-10-18T06:55:15.296Z,97267.28
2022-10-18T06:57:41.775Z,97268.66
2022-10-18T07:00:09.061Z,97278.25
2022-10-18T07:02:35.679Z,97278.50
2022-10-18T07:05:02.103Z,97276.38
2022-10-18T07:07:31.363Z,97276.28
2022-10-18T07:09:58.008Z,97282.25
2022-10-18T07:12:24.515Z,97285.16
2022-10-18T07:14:50.916Z,97278.75
2022-10-18T07:17:17.371Z,97276.06
2022-10-18T07:19:43.847Z,97294.03
2022-10-18T07:22:10.354Z,97293.28
2022-10-18T07:24:36.822Z,97297.88
2022-10-18T07:27:03.386Z,97300.03
2022-10-18T07:29:29.880Z,97298.00
2022-10-18T07:31:56.448Z,97312.06
2022-10-18T07:34:22.921Z,97306.66
2022-10-18T07:36:49.480Z,97311.97
2022-10-18T07:39:16.184Z,97307.84
2022-10-18T07:41:42.605Z,97306.69
2022-10-18T07:44:09.217Z,97307.84
2022-10-18T07:46:35.753Z,97301.59
2022-10-18T07:49:02.271Z,97296.13
2022-10-18T07:51:30.866Z,97297.56
2022-10-18T07:53:57.340Z,97300.47
2022-10-18T07:56:23.787Z,97292.50
2022-10-18T07:58:52.544Z,97293.13
2022-10-18T08:01:21.218Z,97293.44
2022-10-18T08:03:48.113Z,97291.00
2022-10-18T08:06:18.335Z,97294.91
2022-10-18T08:08:45.410Z,97293.91
2022-10-18T08:11:17.902Z,97291.22
2022-10-18T08:13:44.649Z,97288.09
2022-10-18T08:16:14.251Z,97284.63
2022-10-18T08:18:41.220Z,97290.69
2022-10-18T08:21:09.798Z,97285.44
2022-10-18T08:23:36.845Z,97284.22
2022-10-18T08:26:15.787Z,97294.75
2022-10-18T08:28:49.055Z,97298.16
2022-10-18T08:31:25.558Z,97293.91
2022-10-18T08:33:52.056Z,97296.59
2022-10-18T08:36:19.371Z,97287.41
2022-10-18T08:38:46.131Z,97287.25
2022-10-18T08:41:34.061Z,97286.19
2022-10-18T08:44:43.995Z,97284.16
2022-10-18T08:47:17.732Z,97287.31
2022-10-18T08:49:51.691Z,97288.81
2022-10-18T08:52:34.031Z,97275.69
2022-10-18T08:55:02.935Z,97291.91
2022-10-18T08:57:31.366Z,97308.56
2022-10-18T08:59:58.288Z,97303.94
2022-10-18T09:02:43.513Z,97303.47
2022-10-18T09:05:21.972Z,97309.09
2022-10-18T09:08:00.692Z,97312.47
2022-10-18T09:10:38.228Z,97319.69
2022-10-18T09:13:32.865Z,97305.41
2022-10-18T09:16:05.673Z,97319.13
2022-10-18T09:18:32.057Z,97325.81
2022-10-18T09:21:02.632Z,97330.25
2022-10-18T09:23:46.860Z,97298.81
2022-10-18T09:26:22.018Z,97322.84
2022-10-18T09:29:10.287Z,97312.88
2022-10-18T09:32:11.877Z,97310.03
2022-10-18T09:34:42.471Z,97323.03
2022-10-18T09:37:19.098Z,97315.44
2022-10-18T09:39:48.124Z,97313.09
2022-10-18T09:42:26.527Z,97310.78
2022-10-18T09:45:00.634Z,97301.97
2022-10-18T09:47:35.296Z,97304.63
2022-10-18T09:50:15.008Z,97306.97
2022-10-18T09:52:49.408Z,97304.94
2022-10-18T09:55:22.314Z,97314.59
2022-10-18T09:57:54.593Z,97322.69
2022-10-18T10:00:28.079Z,97313.19
2022-10-18T10:02:55.013Z,97317.75
2022-10-18T10:05:21.488Z,97306.66
2022-10-18T10:07:48.971Z,97308.50
2022-10-18T10:10:47.093Z,97309.34
2022-10-18T10:13:23.070Z,97291.16
2022-10-18T10:16:03.181Z,97290.59
2022-10-18T10:18:33.233Z,97295.19
2022-10-18T10:21:03.108Z,97297.03
2022-10-18T10:23:33.063Z,97292.78
2022-10-18T10:26:07.152Z,97293.50
2022-10-18T10:28:40.588Z,97292.28
2022-10-18T10:31:19.347Z,97287.41
2022-10-18T10:33:47.869Z,97292.41
2022-10-18T10:36:20.487Z,97282.78
2022-10-18T10:39:03.243Z,97267.50
2022-10-18T10:41:30.027Z,97283.50
2022-10-18T10:43:56.817Z,97272.00
2022-10-18T10:46:26.354Z,97273.94
2022-10-18T10:49:04.495Z,97271.63
2022-10-18T10:51:43.538Z,97275.88
2022-10-18T10:54:22.652Z,97278.91
2022-10-18T10:57:19.413Z,97263.19
2022-10-18T10:59:51.947Z,97262.47
2022-10-18T11:02:29.680Z,97258.59
2022-10-18T11:05:15.317Z,97270.06
2022-10-18T11:07:44.450Z,97261.00
2022-10-18T11:10:10.831Z,97265.63
2022-10-18T11:12:45.126Z,97257.97
2022-10-18T11:15:14.457Z,97257.22
2022-10-18T11:18:17.437Z,97252.63
2022-10-18T11:21:16.709Z,97252.25
2022-10-18T11:23:44.667Z,97245.38
2022-10-18T11:26:11.262Z,97246.50
2022-10-18T11:28:41.105Z,97240.34
2022-10-18T11:31:46.342Z,97236.56
2022-10-18T11:34:49.752Z,97236.19
2022-10-18T11:37:32.185Z,97230.84
2022-10-18T11:40:04.830Z,97218.22
2022-10-18T11:42:40.181Z,97221.25
2022-10-18T11:45:25.267Z,97220.09
2022-10-18T11:48:11.081Z,97222.84
2022-10-18T11:50:49.391Z,97219.34
2022-10-18T11:53:25.012Z,97222.88
2022-10-18T11:56:00.638Z,97213.28
2022-10-18T11:58:30.329Z,97212.91
2022-10-18T12:01:12.907Z,97209.84
2022-10-18T12:03:58.675Z,97206.41
2022-10-18T12:06:33.485Z,97202.91
2022-10-18T12:09:04.090Z,97195.25
2022-10-18T12:11:37.166Z,97193.69
2022-10-18T12:14:18.895Z,97196.00
2022-10-18T12:16:51.420Z,97181.47
2022-10-18T12:19:27.635Z,97188.41
2022-10-18T12:21:57.175Z,97188.00
2022-10-18T12:24:28.690Z,97193.00
2022-10-18T12:26:59.650Z,97185.72
2022-10-18T12:29:46.648Z,97198.38
2022-10-18T12:32:25.177Z,97183.81
2022-10-18T12:35:20.584Z,97181.50
2022-10-18T12:38:06.079Z,97178.44
2022-10-18T12:40:40.869Z,97176.91
2022-10-18T12:43:10.075Z,97173.06
2022-10-18T12:45:50.849Z,97171.16
2022-10-18T12:48:38.856Z,97166.53
2022-10-18T12:51:17.758Z,97171.94
2022-10-18T12:53:54.916Z,97167.72
2022-10-18T12:56:30.860Z,97164.66
2022-10-18T12:59:15.849Z,97167.75
2022-10-18T13:01:51.597Z,97162.38
2022-10-18T13:04:27.455Z,97160.44
2022-10-18T13:07:07.895Z,97160.44
2022-10-18T13:09:39.050Z,97154.72
2022-10-18T13:12:12.347Z,97152.00
2022-10-18T13:15:25.861Z,97152.75
2022-10-18T13:18:40.131Z,97151.22
2022-10-18T13:21:34.115Z,97145.50
2022-10-18T13:24:16.238Z,97152.75
2022-10-18T13:27:31.399Z,97149.69
2022-10-18T13:30:31.620Z,97148.53
2022-10-18T13:33:20.226Z,97151.59
2022-10-18T13:35:51.357Z,97143.94
2022-10-18T13:38:36.439Z,97147.00
2022-10-18T13:41:56.519Z,97151.56
2022-10-18T13:44:30.405Z,97138.09
2022-10-18T13:46:56.792Z,97146.94
2022-10-18T13:49:44.505Z,97146.59
2022-10-18T13:52:17.088Z,97140.88
2022-10-18T13:54:55.652Z,97142.41
2022-10-18T13:57:24.996Z,97133.97
2022-10-18T14:00:15.858Z,97136.25
2022-10-18T14:03:06.404Z,97138.59
2022-10-18T14:05:52.396Z,97146.25
2022-10-18T14:08:44.145Z,97136.25
2022-10-18T14:11:46.437Z,97131.31
2022-10-18T14:14:30.481Z,97140.09
2022-10-18T14:17:07.936Z,97133.59
2022-10-18T14:19:52.291Z,97127.06
2022-10-18T14:22:31.522Z,97136.25
2022-10-18T14:24:59.401Z,97134.72
2022-10-18T14:27:33.008Z,97145.84
2022-10-18T14:30:20.386Z,97141.63
2022-10-18T14:32:54.499Z,97134.78
2022-10-18T14:35:32.521Z,97130.19
2022-10-18T14:38:00.510Z,97137.78
2022-10-18T14:40:34.991Z,97134.75
2022-10-18T14:43:27.666Z,97135.53
2022-10-18T14:45:54.193Z,97127.50
2022-10-18T14:48:22.585Z,97131.38
2022-10-18T14:51:01.574Z,97124.09
2022-10-18T14:53:35.890Z,97132.13
2022-10-18T14:56:06.432Z,97130.22
2022-10-18T14:58:39.735Z,97122.94
2022-10-18T15:01:07.707Z,97122.56
2022-10-18T15:03:35.775Z,97121.78
2022-10-18T15:06:05.288Z,97119.53
2022-10-18T15:08:42.651Z,97121.06
2022-10-18T15:11:14.456Z,97114.19
2022-10-18T15:13:52.100Z,97121.81
2022-10-18T15:16:20.214Z,97121.81
2022-10-18T15:19:16.405Z,97118.75
2022-10-18T15:25:06.134Z,97112.63
2022-10-18T15:27:37.190Z,97114.13
2022-10-18T15:30:09.261Z,97104.91
2022-10-18T15:32:37.740Z,97110.22
2022-10-18T15:35:14.296Z,97108.69
2022-10-18T15:37:43.938Z,97108.25
2022-10-18T15:40:40.686Z,97107.06
2022-10-18T15:43:25.779Z,97106.31
2022-10-18T15:46:05.092Z,97102.81
2022-10-18T15:48:39.559Z,97104.72
2022-10-18T15:51:43.136Z,97110.75
2022-10-18T15:54:18.479Z,97108.06
2022-10-18T15:56:45.561Z,97103.81
2022-10-18T15:59:30.891Z,97104.94
2022-10-18T16:01:57.911Z,97103.41
2022-10-18T16:04:27.476Z,97106.78
2022-10-18T16:06:55.959Z,97110.56
2022-10-18T16:09:24.507Z,97110.16
2022-10-18T16:11:55.801Z,97108.22
2022-10-18T16:14:25.472Z,97100.50
2022-10-18T16:16:55.034Z,97111.53
2022-10-18T16:19:22.803Z,97116.88
2022-10-18T16:21:50.242Z,97118.38
2022-10-18T16:24:17.901Z,97119.50
2022-10-18T16:26:44.505Z,97115.25
2022-10-18T16:29:14.723Z,97120.28
2022-10-18T16:31:41.578Z,97112.53
2022-10-18T16:34:11.101Z,97121.66
2022-10-18T16:36:37.567Z,97126.16
2022-10-18T16:39:09.344Z,97139.09
2022-10-18T16:41:35.770Z,97137.56
2022-10-18T16:44:02.219Z,97137.09
2022-10-18T16:46:31.081Z,97142.75
2022-10-18T16:48:57.785Z,97154.16
2022-10-18T16:51:24.472Z,97151.50
2022-10-18T16:53:51.136Z,97154.91
2022-10-18T16:56:30.382Z,97160.19
2022-10-18T16:58:58.234Z,97158.25
2022-10-18T17:01:25.755Z,97161.25
2022-10-18T17:03:53.885Z,97163.84
2022-10-18T17:06:29.358Z,97160.38
2022-10-18T17:08:56.802Z,97161.44
2022-10-18T17:11:27.636Z,97160.25
2022-10-18T17:13:54.605Z,97157.47
2022-10-18T17:18:57.456Z,97170.16
2022-10-18T17:21:25.009Z,97160.19
2022-10-18T17:23:51.823Z,97185.31
2022-10-18T17:26:28.853Z,97198.91
2022-10-18T17:29:05.482Z,97182.25
2022-10-18T17:31:32.684Z,97200.28
2022-10-18T17:34:01.643Z,97200.31
2022-10-18T17:36:29.656Z,97192.25
2022-10-18T17:38:56.362Z,97199.06
2022-10-18T17:41:22.989Z,97195.19
2022-10-18T17:43:49.479Z,97210.44
2022-10-18T17:46:16.309Z,97209.22
2022-10-18T17:48:42.789Z,97206.47
2022-10-18T17:51:11.510Z,97222.91
2022-10-18T17:53:38.022Z,97222.34
2022-10-18T17:56:05.263Z,97212.00
2022-10-18T17:58:32.311Z,97205.44
2022-10-18T18:01:12.468Z,97217.28
2022-10-18T18:03:39.025Z,97215.34
2022-10-18T18:06:36.164Z,97210.66
2022-10-18T18:09:07.464Z,97219.00
2022-10-18T18:11:34.693Z,97209.78
2022-10-18T18:14:01.607Z,97214.31
2022-10-18T18:16:29.972Z,97218.06
2022-10-18T18:18:58.745Z,97210.44
2022-10-18T18:21:26.117Z,97217.63
2022-10-18T18:23:53.070Z,97215.66
2022-10-18T18:26:20.391Z,97210.25
2022-10-18T18:28:47.186Z,97213.31
2022-10-18T18:31:19.331Z,97213.63
2022-10-18T18:33:46.318Z,97215.41
2022-10-18T18:36:13.110Z,97216.88
2022-10-18T18:38:42.565Z,97210.66
2022-10-18T18:41:10.512Z,97216.72
2022-10-18T18:43:38.648Z,97220.88
2022-10-18T18:46:05.462Z,97213.91
2022-10-18T18:48:34.036Z,97216.50
2022-10-18T18:51:01.989Z,97224.09
2022-10-18T18:53:29.672Z,97226.94
2022-10-18T18:56:01.934Z,97212.84
2022-10-18T18:58:28.420Z,97221.28
2022-10-18T19:00:54.870Z,97229.28
2022-10-18T19:03:21.309Z,97217.03
2022-10-18T19:05:47.784Z,97218.94
2022-10-18T19:08:14.209Z,97215.97
2022-10-18T19:10:40.661Z,97221.69
2022-10-18T19:13:07.147Z,97226.63
2022-10-18T19:15:33.819Z,97228.00
2022-10-18T19:18:00.239Z,97224.03
2022-10-18T19:20:26.696Z,97225.50
2022-10-18T19:22:53.585Z,97224.28
2022-10-18T19:25:22.197Z,97213.94
2022-10-18T19:27:51.231Z,97212.47
2022-10-18T19:30:19.768Z,97217.03
2022-10-18T19:32:46.185Z,97220.31
2022-10-18T19:35:12.615Z,97220.53
2022-10-18T19:37:39.206Z,97221.91
2022-10-18T19:40:06.347Z,97215.41
2022-10-18T19:42:33.214Z,97219.56
2022-10-18T19:44:59.909Z,97218.06
2022-10-18T19:47:26.359Z,97217.75
2022-10-18T19:49:53.791Z,97217.34
2022-10-18T19:52:20.219Z,97224.22
2022-10-18T19:54:48.614Z,97225.72
2022-10-18T19:57:15.081Z,97217.84
2022-10-18T20:02:15.078Z,97221.09
2022-10-18T20:04:41.695Z,97226.75
2022-10-18T20:07:08.736Z,97216.84
2022-10-18T20:09:35.258Z,97219.03
2022-10-18T20:12:01.798Z,97219.66
2022-10-18T20:14:28.223Z,97227.03
2022-10-18T20:16:55.147Z,97231.97
2022-10-18T20:19:21.617Z,97237.66
2022-10-18T20:21:48.042Z,97239.50
2022-10-18T20:24:14.479Z,97250.13
2022-10-18T20:26:41.096Z,97248.94
2022-10-18T20:29:08.059Z,97251.13
2022-10-18T20:31:38.574Z,97251.47
2022-10-18T20:34:08.108Z,97262.03
2022-10-18T20:36:35.141Z,97255.59
2022-10-18T20:39:02.451Z,97247.09
2022-10-18T20:41:34.682Z,97260.38
2022-10-18T20:44:04.046Z,97259.47
2022-10-18T20:46:33.245Z,97261.66
2022-10-18T20:48:59.773Z,97254.03
2022-10-18T20:51:26.715Z,97249.81
2022-10-18T20:53:53.640Z,97249.97
2022-10-18T20:56:22.715Z,97252.53
2022-10-18T20:58:51.647Z,97258.56
2022-10-18T21:01:27.512Z,97250.41
2022-10-18T21:03:55.548Z,97251.41
2022-10-18T21:06:25.138Z,97249.09
2022-10-18T21:08:56.453Z,97254.00
2022-10-18T21:11:23.393Z,97256.78
2022-10-18T21:13:54.453Z,97250.28
2022-10-18T21:16:21.048Z,97236.84
2022-10-18T21:18:47.723Z,97243.84
2022-10-18T21:21:19.911Z,97251.53
2022-10-18T21:23:47.426Z,97248.03
2022-10-18T21:26:16.906Z,97247.91
2022-10-18T21:28:43.682Z,97250.75
2022-10-18T21:31:15.831Z,97250.63
2022-10-18T21:33:43.098Z,97246.97
2022-10-18T21:36:10.593Z,97251.09
2022-10-18T21:38:37.304Z,97238.44
2022-10-18T21:41:09.791Z,97247.50
2022-10-18T21:43:40.286Z,97247.28
2022-10-18T21:46:07.560Z,97242.59
2022-10-18T21:48:34.061Z,97227.34
2022-10-18T21:51:07.936Z,97236.19
2022-10-18T21:53:35.211Z,97230.03
2022-10-18T21:56:12.892Z,97237.31
2022-10-18T21:58:39.965Z,97233.72
2022-10-18T22:01:11.775Z,97238.44
2022-10-18T22:03:38.406Z,97233.72
2022-10-18T22:06:13.725Z,97232.81
2022-10-18T22:08:41.471Z,97225.16
2022-10-18T22:11:08.511Z,97243.94
2022-10-18T22:13:35.206Z,97238.19
2022-10-18T22:16:04.016Z,97239.03
2022-10-18T22:18:31.946Z,97242.97
2022-10-18T22:21:06.442Z,97241.94
2022-10-18T22:23:42.169Z,97243.94
2022-10-18T22:26:14.846Z,97243.75
2022-10-18T22:28:43.133Z,97242.03
2022-10-18T22:31:22.323Z,97246.75
2022-10-18T22:33:53.687Z,97245.44
2022-10-18T22:36:20.377Z,97249.09
2022-10-18T22:38:46.800Z,97245.94
2022-10-18T22:41:13.280Z,97235.31
2022-10-18T22:43:40.197Z,97231.47
2022-10-18T22:46:09.426Z,97235.56
2022-10-18T22:48:36.117Z,97230.53
2022-10-18T22:51:03.613Z,97229.41
2022-10-18T22:53:30.430Z,97223.84
2022-10-18T22:55:56.883Z,97219.66
2022-10-18T22:58:23.350Z,97225.88
2022-10-18T23:00:50.236Z,97217.00
2022-10-18T23:03:18.682Z,97225.50
2022-10-18T23:05:46.928Z,97228.75
2022-10-18T23:08:14.383Z,97210.69
2022-10-18T23:10:42.404Z,97226.59
2022-10-18T23:13:09.557Z,97223.53
2022-10-18T23:15:36.662Z,97222.06
2022-10-18T23:18:03.129Z,97218.75
2022-10-18T23:20:29.556Z,97222.94
2022-10-18T23:22:55.983Z,97213.09
2022-10-18T23:25:22.507Z,97207.91
2022-10-18T23:27:48.964Z,97217.53
2022-10-18T23:30:16.617Z,97210.59
2022-10-18T23:32:43.075Z,97211.28
2022-10-18T23:35:09.871Z,97196.94
2022-10-18T23:37:36.841Z,97210.31
2022-10-18T23:40:03.895Z,97200.81
2022-10-18T23:42:30.362Z,97209.97
2022-10-18T23:44:56.807Z,97210.31
2022-10-18T23:47:23.278Z,97205.25
2022-10-18T23:49:49.705Z,97205.50
2022-10-18T23:52:16.209Z,97201.53
2022-10-18T23:57:14.009Z,97197.34
2022-10-18T23:59:40.417Z,97195.03
